sensor_id;sensor_type;location;lat;lon;timestamp;P1;durP1;ratioP1;P2;durP2;ratioP2
24435;SDS011;12616;52.470;13.436;2023-04-23T00:00:56;15.10;;;10.57;;
24435;SDS011;12616;52.470;13.436;2023-04-23T00:03:26;13.93;;;11.37;;
24435;SDS011;12616;52.470;13.436;2023-04-23T00:05:57;11.97;;;10.73;;
24435;SDS011;12616;52.470;13.436;2023-04-23T00:08:24;12.13;;;10.90;;
24435;SDS011;12616;52.470;13.436;2023-04-23T00:10:52;13.37;;;10.53;;
24435;SDS011;12616;52.470;13.436;2023-04-23T00:13:19;13.17;;;11.20;;
24435;SDS011;12616;52.470;13.436;2023-04-23T00:15:48;11.70;;;10.60;;
24435;SDS011;12616;52.470;13.436;2023-04-23T00:18:15;13.83;;;11.20;;
24435;SDS011;12616;52.470;13.436;2023-04-23T00:20:43;11.90;;;10.47;;
24435;SDS011;12616;52.470;13.436;2023-04-23T00:23:10;14.13;;;10.67;;
24435;SDS011;12616;52.470;13.436;2023-04-23T00:25:37;11.03;;;9.90;;
24435;SDS011;12616;52.470;13.436;2023-04-23T00:28:04;12.20;;;11.07;;
24435;SDS011;12616;52.470;13.436;2023-04-23T00:30:31;14.80;;;11.13;;
24435;SDS011;12616;52.470;13.436;2023-04-23T00:32:59;16.03;;;12.17;;
24435;SDS011;12616;52.470;13.436;2023-04-23T00:35:26;13.03;;;10.90;;
24435;SDS011;12616;52.470;13.436;2023-04-23T00:37:53;10.67;;;9.57;;
24435;SDS011;12616;52.470;13.436;2023-04-23T00:40:20;11.90;;;10.60;;
24435;SDS011;12616;52.470;13.436;2023-04-23T00:42:47;11.13;;;10.03;;
24435;SDS011;12616;52.470;13.436;2023-04-23T00:45:16;12.00;;;10.70;;
24435;SDS011;12616;52.470;13.436;2023-04-23T00:47:43;12.10;;;10.70;;
24435;SDS011;12616;52.470;13.436;2023-04-23T00:50:12;10.93;;;9.93;;
24435;SDS011;12616;52.470;13.436;2023-04-23T00:52:39;12.83;;;11.53;;
24435;SDS011;12616;52.470;13.436;2023-04-23T00:55:06;11.90;;;10.70;;
24435;SDS011;12616;52.470;13.436;2023-04-23T00:57:33;13.70;;;10.53;;
24435;SDS011;12616;52.470;13.436;2023-04-23T01:00:01;17.20;;;11.13;;
24435;SDS011;12616;52.470;13.436;2023-04-23T01:02:30;12.60;;;11.40;;
24435;SDS011;12616;52.470;13.436;2023-04-23T01:04:57;13.20;;;10.93;;
24435;SDS011;12616;52.470;13.436;2023-04-23T01:07:26;12.27;;;11.00;;
24435;SDS011;12616;52.470;13.436;2023-04-23T01:09:53;13.87;;;11.03;;
24435;SDS011;12616;52.470;13.436;2023-04-23T01:12:20;12.83;;;11.37;;
24435;SDS011;12616;52.470;13.436;2023-04-23T01:14:48;12.17;;;10.93;;
24435;SDS011;12616;52.470;13.436;2023-04-23T01:17:15;13.10;;;10.57;;
24435;SDS011;12616;52.470;13.436;2023-04-23T01:19:42;12.10;;;10.90;;
24435;SDS011;12616;52.470;13.436;2023-04-23T01:22:10;12.60;;;11.30;;
24435;SDS011;12616;52.470;13.436;2023-04-23T01:24:38;13.93;;;12.37;;
24435;SDS011;12616;52.470;13.436;2023-04-23T01:27:06;12.27;;;11.07;;
24435;SDS011;12616;52.470;13.436;2023-04-23T01:29:33;12.47;;;11.17;;
24435;SDS011;12616;52.470;13.436;2023-04-23T01:32:00;14.10;;;10.67;;
24435;SDS011;12616;52.470;13.436;2023-04-23T01:34:28;12.37;;;11.27;;
24435;SDS011;12616;52.470;13.436;2023-04-23T01:36:56;11.87;;;10.63;;
24435;SDS011;12616;52.470;13.436;2023-04-23T01:39:25;15.57;;;11.63;;
24435;SDS011;12616;52.470;13.436;2023-04-23T01:41:52;12.93;;;10.30;;
24435;SDS011;12616;52.470;13.436;2023-04-23T01:44:19;12.80;;;11.60;;
24435;SDS011;12616;52.470;13.436;2023-04-23T01:46:46;12.80;;;11.50;;
24435;SDS011;12616;52.470;13.436;2023-04-23T01:49:13;13.00;;;11.80;;
24435;SDS011;12616;52.470;13.436;2023-04-23T01:51:41;16.17;;;11.30;;
24435;SDS011;12616;52.470;13.436;2023-04-23T01:54:08;11.90;;;10.80;;
24435;SDS011;12616;52.470;13.436;2023-04-23T01:56:36;11.13;;;10.10;;
24435;SDS011;12616;52.470;13.436;2023-04-23T01:59:03;12.93;;;11.40;;
24435;SDS011;12616;52.470;13.436;2023-04-23T02:01:39;12.80;;;11.60;;
24435;SDS011;12616;52.470;13.436;2023-04-23T02:04:08;14.20;;;11.50;;
24435;SDS011;12616;52.470;13.436;2023-04-23T02:06:35;12.73;;;11.40;;
24435;SDS011;12616;52.470;13.436;2023-04-23T02:09:02;14.50;;;11.57;;
24435;SDS011;12616;52.470;13.436;2023-04-23T02:11:29;15.67;;;12.80;;
24435;SDS011;12616;52.470;13.436;2023-04-23T02:13:58;12.90;;;11.60;;
24435;SDS011;12616;52.470;13.436;2023-04-23T02:16:25;13.93;;;12.67;;
24435;SDS011;12616;52.470;13.436;2023-04-23T02:18:52;22.00;;;14.17;;
24435;SDS011;12616;52.470;13.436;2023-04-23T02:21:19;21.60;;;16.23;;
24435;SDS011;12616;52.470;13.436;2023-04-23T02:23:46;21.30;;;16.30;;
24435;SDS011;12616;52.470;13.436;2023-04-23T02:26:13;19.20;;;17.17;;
24435;SDS011;12616;52.470;13.436;2023-04-23T02:28:39;21.37;;;16.27;;
24435;SDS011;12616;52.470;13.436;2023-04-23T02:31:08;18.20;;;16.30;;
24435;SDS011;12616;52.470;13.436;2023-04-23T02:33:34;21.37;;;16.80;;
24435;SDS011;12616;52.470;13.436;2023-04-23T02:36:01;17.67;;;15.87;;
24435;SDS011;12616;52.470;13.436;2023-04-23T02:38:28;21.57;;;18.13;;
24435;SDS011;12616;52.470;13.436;2023-04-23T02:40:55;27.37;;;16.90;;
24435;SDS011;12616;52.470;13.436;2023-04-23T02:43:22;19.73;;;16.47;;
24435;SDS011;12616;52.470;13.436;2023-04-23T02:45:49;18.20;;;14.80;;
24435;SDS011;12616;52.470;13.436;2023-04-23T02:48:17;20.60;;;15.60;;
24435;SDS011;12616;52.470;13.436;2023-04-23T02:50:45;18.87;;;16.97;;
24435;SDS011;12616;52.470;13.436;2023-04-23T02:53:12;20.27;;;16.97;;
24435;SDS011;12616;52.470;13.436;2023-04-23T02:55:39;21.67;;;17.00;;
24435;SDS011;12616;52.470;13.436;2023-04-23T02:58:05;17.30;;;15.63;;
24435;SDS011;12616;52.470;13.436;2023-04-23T03:00:32;20.83;;;15.53;;
24435;SDS011;12616;52.470;13.436;2023-04-23T03:02:59;19.90;;;16.90;;
24435;SDS011;12616;52.470;13.436;2023-04-23T03:05:27;16.33;;;14.83;;
24435;SDS011;12616;52.470;13.436;2023-04-23T03:07:54;20.53;;;16.50;;
24435;SDS011;12616;52.470;13.436;2023-04-23T03:10:21;19.67;;;17.50;;
24435;SDS011;12616;52.470;13.436;2023-04-23T03:12:48;19.77;;;17.77;;
24435;SDS011;12616;52.470;13.436;2023-04-23T03:15:15;19.90;;;17.80;;
24435;SDS011;12616;52.470;13.436;2023-04-23T03:17:42;20.07;;;17.97;;
24435;SDS011;12616;52.470;13.436;2023-04-23T03:20:09;20.47;;;18.37;;
24435;SDS011;12616;52.470;13.436;2023-04-23T03:22:37;21.80;;;19.50;;
24435;SDS011;12616;52.470;13.436;2023-04-23T03:25:04;26.10;;;20.80;;
24435;SDS011;12616;52.470;13.436;2023-04-23T03:27:32;26.67;;;23.80;;
24435;SDS011;12616;52.470;13.436;2023-04-23T03:30:00;36.90;;;28.27;;
24435;SDS011;12616;52.470;13.436;2023-04-23T03:32:27;22.43;;;20.03;;
24435;SDS011;12616;52.470;13.436;2023-04-23T03:34:54;21.90;;;19.50;;
24435;SDS011;12616;52.470;13.436;2023-04-23T03:37:21;24.07;;;21.57;;
24435;SDS011;12616;52.470;13.436;2023-04-23T03:39:49;20.27;;;18.23;;
24435;SDS011;12616;52.470;13.436;2023-04-23T03:42:16;21.10;;;19.00;;
24435;SDS011;12616;52.470;13.436;2023-04-23T03:44:43;19.57;;;17.60;;
24435;SDS011;12616;52.470;13.436;2023-04-23T03:47:10;22.23;;;19.83;;
24435;SDS011;12616;52.470;13.436;2023-04-23T03:49:37;19.50;;;17.50;;
24435;SDS011;12616;52.470;13.436;2023-04-23T03:52:04;24.87;;;22.17;;
24435;SDS011;12616;52.470;13.436;2023-04-23T03:54:31;23.47;;;19.90;;
24435;SDS011;12616;52.470;13.436;2023-04-23T03:56:59;20.80;;;18.80;;
24435;SDS011;12616;52.470;13.436;2023-04-23T03:59:26;21.63;;;19.40;;
24435;SDS011;12616;52.470;13.436;2023-04-23T04:01:53;22.33;;;19.00;;
24435;SDS011;12616;52.470;13.436;2023-04-23T04:04:20;22.30;;;19.77;;
24435;SDS011;12616;52.470;13.436;2023-04-23T04:06:47;22.53;;;20.23;;
24435;SDS011;12616;52.470;13.436;2023-04-23T04:09:13;24.60;;;20.67;;
24435;SDS011;12616;52.470;13.436;2023-04-23T04:11:41;22.90;;;20.60;;
24435;SDS011;12616;52.470;13.436;2023-04-23T04:14:09;22.20;;;19.33;;
24435;SDS011;12616;52.470;13.436;2023-04-23T04:16:36;24.17;;;20.00;;
24435;SDS011;12616;52.470;13.436;2023-04-23T04:19:02;37.20;;;22.70;;
24435;SDS011;12616;52.470;13.436;2023-04-23T04:21:29;20.13;;;17.10;;
24435;SDS011;12616;52.470;13.436;2023-04-23T04:23:57;27.60;;;22.03;;
24435;SDS011;12616;52.470;13.436;2023-04-23T04:26:25;34.93;;;26.00;;
24435;SDS011;12616;52.470;13.436;2023-04-23T04:28:52;22.47;;;18.00;;
24435;SDS011;12616;52.470;13.436;2023-04-23T04:31:20;17.57;;;15.67;;
24435;SDS011;12616;52.470;13.436;2023-04-23T04:33:47;18.77;;;15.43;;
24435;SDS011;12616;52.470;13.436;2023-04-23T04:36:14;18.23;;;15.47;;
24435;SDS011;12616;52.470;13.436;2023-04-23T04:38:42;18.57;;;16.70;;
24435;SDS011;12616;52.470;13.436;2023-04-23T04:41:09;17.43;;;15.27;;
24435;SDS011;12616;52.470;13.436;2023-04-23T04:43:35;18.97;;;15.87;;
24435;SDS011;12616;52.470;13.436;2023-04-23T04:46:02;18.47;;;15.33;;
24435;SDS011;12616;52.470;13.436;2023-04-23T04:48:30;17.67;;;15.37;;
24435;SDS011;12616;52.470;13.436;2023-04-23T04:50:57;17.30;;;15.50;;
24435;SDS011;12616;52.470;13.436;2023-04-23T04:53:24;16.47;;;14.80;;
24435;SDS011;12616;52.470;13.436;2023-04-23T04:55:51;18.43;;;15.70;;
24435;SDS011;12616;52.470;13.436;2023-04-23T04:58:18;17.57;;;15.77;;
24435;SDS011;12616;52.470;13.436;2023-04-23T05:00:45;17.43;;;15.77;;
24435;SDS011;12616;52.470;13.436;2023-04-23T05:03:15;16.17;;;14.67;;
24435;SDS011;12616;52.470;13.436;2023-04-23T05:05:44;16.73;;;15.13;;
24435;SDS011;12616;52.470;13.436;2023-04-23T05:08:12;17.37;;;15.47;;
24435;SDS011;12616;52.470;13.436;2023-04-23T05:10:40;17.17;;;15.47;;
24435;SDS011;12616;52.470;13.436;2023-04-23T05:13:08;18.23;;;16.50;;
24435;SDS011;12616;52.470;13.436;2023-04-23T05:15:34;16.23;;;14.63;;
24435;SDS011;12616;52.470;13.436;2023-04-23T05:18:02;16.87;;;15.17;;
24435;SDS011;12616;52.470;13.436;2023-04-23T05:20:31;16.43;;;15.00;;
24435;SDS011;12616;52.470;13.436;2023-04-23T05:23:00;16.87;;;15.07;;
24435;SDS011;12616;52.470;13.436;2023-04-23T05:25:27;17.40;;;15.60;;
24435;SDS011;12616;52.470;13.436;2023-04-23T05:27:54;18.10;;;16.20;;
24435;SDS011;12616;52.470;13.436;2023-04-23T05:30:21;20.70;;;16.33;;
24435;SDS011;12616;52.470;13.436;2023-04-23T05:32:48;17.27;;;15.47;;
24435;SDS011;12616;52.470;13.436;2023-04-23T05:35:15;16.47;;;15.00;;
24435;SDS011;12616;52.470;13.436;2023-04-23T05:37:42;15.90;;;13.83;;
24435;SDS011;12616;52.470;13.436;2023-04-23T05:40:10;16.13;;;14.43;;
24435;SDS011;12616;52.470;13.436;2023-04-23T05:42:37;16.97;;;14.73;;
24435;SDS011;12616;52.470;13.436;2023-04-23T05:45:04;16.97;;;13.83;;
24435;SDS011;12616;52.470;13.436;2023-04-23T05:47:32;19.70;;;15.33;;
24435;SDS011;12616;52.470;13.436;2023-04-23T05:49:59;15.80;;;14.10;;
24435;SDS011;12616;52.470;13.436;2023-04-23T05:52:26;19.00;;;15.27;;
24435;SDS011;12616;52.470;13.436;2023-04-23T05:54:55;14.90;;;13.10;;
24435;SDS011;12616;52.470;13.436;2023-04-23T05:57:23;14.20;;;12.40;;
24435;SDS011;12616;52.470;13.436;2023-04-23T05:59:50;13.93;;;12.60;;
24435;SDS011;12616;52.470;13.436;2023-04-23T06:02:17;14.00;;;12.63;;
24435;SDS011;12616;52.470;13.436;2023-04-23T06:04:44;13.93;;;12.40;;
24435;SDS011;12616;52.470;13.436;2023-04-23T06:07:11;12.43;;;11.20;;
24435;SDS011;12616;52.470;13.436;2023-04-23T06:09:39;12.00;;;10.77;;
24435;SDS011;12616;52.470;13.436;2023-04-23T06:12:06;11.77;;;10.57;;
24435;SDS011;12616;52.470;13.436;2023-04-23T06:14:36;16.10;;;12.07;;
24435;SDS011;12616;52.470;13.436;2023-04-23T06:17:03;12.43;;;11.13;;
24435;SDS011;12616;52.470;13.436;2023-04-23T06:19:31;11.90;;;10.63;;
24435;SDS011;12616;52.470;13.436;2023-04-23T06:21:59;12.47;;;10.90;;
24435;SDS011;12616;52.470;13.436;2023-04-23T06:24:26;13.53;;;12.13;;
24435;SDS011;12616;52.470;13.436;2023-04-23T06:26:53;10.67;;;9.73;;
24435;SDS011;12616;52.470;13.436;2023-04-23T06:29:20;11.07;;;9.97;;
24435;SDS011;12616;52.470;13.436;2023-04-23T06:31:48;11.20;;;10.10;;
24435;SDS011;12616;52.470;13.436;2023-04-23T06:34:15;15.80;;;9.80;;
24435;SDS011;12616;52.470;13.436;2023-04-23T06:36:42;10.37;;;9.37;;
24435;SDS011;12616;52.470;13.436;2023-04-23T06:39:08;10.17;;;9.13;;
24435;SDS011;12616;52.470;13.436;2023-04-23T06:41:35;10.23;;;9.30;;
24435;SDS011;12616;52.470;13.436;2023-04-23T06:44:03;10.30;;;9.30;;
24435;SDS011;12616;52.470;13.436;2023-04-23T06:46:30;9.47;;;8.63;;
24435;SDS011;12616;52.470;13.436;2023-04-23T06:48:58;10.20;;;9.13;;
24435;SDS011;12616;52.470;13.436;2023-04-23T06:51:26;10.13;;;9.13;;
24435;SDS011;12616;52.470;13.436;2023-04-23T06:53:54;11.37;;;10.00;;
24435;SDS011;12616;52.470;13.436;2023-04-23T06:56:21;9.83;;;9.03;;
24435;SDS011;12616;52.470;13.436;2023-04-23T06:58:48;11.17;;;10.13;;
24435;SDS011;12616;52.470;13.436;2023-04-23T07:01:15;10.30;;;9.40;;
24435;SDS011;12616;52.470;13.436;2023-04-23T07:03:43;11.73;;;9.67;;
24435;SDS011;12616;52.470;13.436;2023-04-23T07:06:14;8.90;;;8.00;;
24435;SDS011;12616;52.470;13.436;2023-04-23T07:08:41;9.03;;;8.13;;
24435;SDS011;12616;52.470;13.436;2023-04-23T07:11:09;9.53;;;8.43;;
24435;SDS011;12616;52.470;13.436;2023-04-23T07:13:36;8.23;;;7.50;;
24435;SDS011;12616;52.470;13.436;2023-04-23T07:16:03;9.00;;;8.20;;
24435;SDS011;12616;52.470;13.436;2023-04-23T07:18:30;8.53;;;7.70;;
24435;SDS011;12616;52.470;13.436;2023-04-23T07:20:58;10.90;;;8.60;;
24435;SDS011;12616;52.470;13.436;2023-04-23T07:23:27;9.00;;;7.67;;
24435;SDS011;12616;52.470;13.436;2023-04-23T07:25:56;11.63;;;10.47;;
24435;SDS011;12616;52.470;13.436;2023-04-23T07:28:23;11.13;;;9.97;;
24435;SDS011;12616;52.470;13.436;2023-04-23T07:30:50;11.63;;;10.43;;
24435;SDS011;12616;52.470;13.436;2023-04-23T07:33:18;13.17;;;11.10;;
24435;SDS011;12616;52.470;13.436;2023-04-23T07:35:45;10.87;;;9.67;;
24435;SDS011;12616;52.470;13.436;2023-04-23T07:38:12;11.37;;;10.27;;
24435;SDS011;12616;52.470;13.436;2023-04-23T07:40:40;13.23;;;11.50;;
24435;SDS011;12616;52.470;13.436;2023-04-23T07:43:07;14.80;;;11.40;;
24435;SDS011;12616;52.470;13.436;2023-04-23T07:45:34;16.07;;;12.07;;
24435;SDS011;12616;52.470;13.436;2023-04-23T07:48:02;14.53;;;12.80;;
24435;SDS011;12616;52.470;13.436;2023-04-23T07:50:30;15.17;;;12.40;;
24435;SDS011;12616;52.470;13.436;2023-04-23T07:52:56;14.30;;;12.77;;
24435;SDS011;12616;52.470;13.436;2023-04-23T07:55:23;14.87;;;13.37;;
24435;SDS011;12616;52.470;13.436;2023-04-23T07:57:52;19.27;;;14.00;;
24435;SDS011;12616;52.470;13.436;2023-04-23T08:00:19;16.70;;;13.17;;
24435;SDS011;12616;52.470;13.436;2023-04-23T08:02:48;16.37;;;13.47;;
24435;SDS011;12616;52.470;13.436;2023-04-23T08:05:15;18.70;;;13.53;;
24435;SDS011;12616;52.470;13.436;2023-04-23T08:07:47;13.80;;;12.40;;
24435;SDS011;12616;52.470;13.436;2023-04-23T08:10:17;14.60;;;12.40;;
24435;SDS011;12616;52.470;13.436;2023-04-23T08:12:44;16.30;;;14.43;;
24435;SDS011;12616;52.470;13.436;2023-04-23T08:15:12;14.67;;;12.43;;
24435;SDS011;12616;52.470;13.436;2023-04-23T08:17:39;14.40;;;12.10;;
24435;SDS011;12616;52.470;13.436;2023-04-23T08:20:06;14.50;;;13.03;;
24435;SDS011;12616;52.470;13.436;2023-04-23T08:22:34;12.50;;;11.20;;
24435;SDS011;12616;52.470;13.436;2023-04-23T08:25:00;13.90;;;12.20;;
24435;SDS011;12616;52.470;13.436;2023-04-23T08:27:28;12.73;;;11.53;;
24435;SDS011;12616;52.470;13.436;2023-04-23T08:29:55;16.03;;;11.80;;
24435;SDS011;12616;52.470;13.436;2023-04-23T08:32:23;13.10;;;11.80;;
24435;SDS011;12616;52.470;13.436;2023-04-23T08:34:50;16.10;;;11.53;;
24435;SDS011;12616;52.470;13.436;2023-04-23T08:37:17;14.60;;;13.00;;
24435;SDS011;12616;52.470;13.436;2023-04-23T08:39:44;12.40;;;11.10;;
24435;SDS011;12616;52.470;13.436;2023-04-23T08:42:13;13.60;;;11.90;;
24435;SDS011;12616;52.470;13.436;2023-04-23T08:44:44;14.73;;;11.50;;
24435;SDS011;12616;52.470;13.436;2023-04-23T08:47:12;14.80;;;12.50;;
24435;SDS011;12616;52.470;13.436;2023-04-23T08:49:44;11.63;;;10.53;;
24435;SDS011;12616;52.470;13.436;2023-04-23T08:52:14;11.87;;;10.70;;
24435;SDS011;12616;52.470;13.436;2023-04-23T08:54:44;12.53;;;10.87;;
24435;SDS011;12616;52.470;13.436;2023-04-23T08:57:15;11.50;;;10.30;;
24435;SDS011;12616;52.470;13.436;2023-04-23T08:59:42;11.80;;;10.60;;
24435;SDS011;12616;52.470;13.436;2023-04-23T09:02:10;11.60;;;10.40;;
24435;SDS011;12616;52.470;13.436;2023-04-23T09:04:38;10.47;;;9.57;;
24435;SDS011;12616;52.470;13.436;2023-04-23T09:07:07;13.23;;;11.93;;
24435;SDS011;12616;52.470;13.436;2023-04-23T09:09:35;12.03;;;10.70;;
24435;SDS011;12616;52.470;13.436;2023-04-23T09:12:04;11.93;;;10.00;;
24435;SDS011;12616;52.470;13.436;2023-04-23T09:14:31;13.10;;;10.27;;
24435;SDS011;12616;52.470;13.436;2023-04-23T09:16:59;14.00;;;9.67;;
24435;SDS011;12616;52.470;13.436;2023-04-23T09:19:27;12.30;;;9.40;;
24435;SDS011;12616;52.470;13.436;2023-04-23T09:21:55;10.60;;;9.70;;
24435;SDS011;12616;52.470;13.436;2023-04-23T09:24:24;11.80;;;10.07;;
24435;SDS011;12616;52.470;13.436;2023-04-23T09:26:51;12.40;;;11.30;;
24435;SDS011;12616;52.470;13.436;2023-04-23T09:29:19;11.10;;;10.00;;
24435;SDS011;12616;52.470;13.436;2023-04-23T09:31:48;11.20;;;9.80;;
24435;SDS011;12616;52.470;13.436;2023-04-23T09:34:16;14.20;;;9.67;;
24435;SDS011;12616;52.470;13.436;2023-04-23T09:36:44;10.60;;;9.50;;
24435;SDS011;12616;52.470;13.436;2023-04-23T09:39:11;11.10;;;9.77;;
24435;SDS011;12616;52.470;13.436;2023-04-23T09:41:40;11.10;;;9.73;;
24435;SDS011;12616;52.470;13.436;2023-04-23T09:44:07;9.83;;;7.67;;
24435;SDS011;12616;52.470;13.436;2023-04-23T09:46:34;7.60;;;7.00;;
24435;SDS011;12616;52.470;13.436;2023-04-23T09:49:03;19.57;;;13.60;;
24435;SDS011;12616;52.470;13.436;2023-04-23T09:51:31;6.57;;;5.97;;
24435;SDS011;12616;52.470;13.436;2023-04-23T09:54:01;7.43;;;6.23;;
24435;SDS011;12616;52.470;13.436;2023-04-23T09:56:31;7.07;;;6.47;;
24435;SDS011;12616;52.470;13.436;2023-04-23T09:58:59;5.50;;;5.00;;
24435;SDS011;12616;52.470;13.436;2023-04-23T10:01:26;5.83;;;5.00;;
24435;SDS011;12616;52.470;13.436;2023-04-23T10:03:54;6.00;;;5.50;;
24435;SDS011;12616;52.470;13.436;2023-04-23T10:06:26;5.87;;;5.27;;
24435;SDS011;12616;52.470;13.436;2023-04-23T10:08:55;5.80;;;5.30;;
24435;SDS011;12616;52.470;13.436;2023-04-23T10:11:23;5.90;;;4.90;;
24435;SDS011;12616;52.470;13.436;2023-04-23T10:13:50;5.73;;;5.20;;
24435;SDS011;12616;52.470;13.436;2023-04-23T10:16:21;5.43;;;4.93;;
24435;SDS011;12616;52.470;13.436;2023-04-23T10:18:49;4.70;;;4.30;;
24435;SDS011;12616;52.470;13.436;2023-04-23T10:21:19;5.30;;;4.80;;
24435;SDS011;12616;52.470;13.436;2023-04-23T10:23:52;4.70;;;4.30;;
24435;SDS011;12616;52.470;13.436;2023-04-23T10:26:22;5.80;;;5.30;;
24435;SDS011;12616;52.470;13.436;2023-04-23T10:28:51;5.00;;;4.60;;
24435;SDS011;12616;52.470;13.436;2023-04-23T10:31:21;7.87;;;6.27;;
24435;SDS011;12616;52.470;13.436;2023-04-23T10:33:49;8.20;;;7.40;;
24435;SDS011;12616;52.470;13.436;2023-04-23T10:36:16;7.70;;;6.53;;
24435;SDS011;12616;52.470;13.436;2023-04-23T10:38:44;9.83;;;8.50;;
24435;SDS011;12616;52.470;13.436;2023-04-23T10:41:11;10.23;;;9.23;;
24435;SDS011;12616;52.470;13.436;2023-04-23T10:43:42;13.43;;;10.13;;
24435;SDS011;12616;52.470;13.436;2023-04-23T10:49:04;11.50;;;10.30;;
24435;SDS011;12616;52.470;13.436;2023-04-23T10:51:32;9.63;;;8.50;;
24435;SDS011;12616;52.470;13.436;2023-04-23T10:54:01;11.47;;;8.37;;
24435;SDS011;12616;52.470;13.436;2023-04-23T10:56:28;8.37;;;7.60;;
24435;SDS011;12616;52.470;13.436;2023-04-23T10:58:55;8.60;;;7.47;;
24435;SDS011;12616;52.470;13.436;2023-04-23T11:01:23;9.40;;;8.10;;
24435;SDS011;12616;52.470;13.436;2023-04-23T11:03:52;8.53;;;7.63;;
24435;SDS011;12616;52.470;13.436;2023-04-23T11:06:19;13.07;;;9.50;;
24435;SDS011;12616;52.470;13.436;2023-04-23T11:12:11;12.10;;;10.67;;
24435;SDS011;12616;52.470;13.436;2023-04-23T11:14:55;11.50;;;10.30;;
24435;SDS011;12616;52.470;13.436;2023-04-23T11:17:57;11.53;;;10.33;;
24435;SDS011;12616;52.470;13.436;2023-04-23T11:20:27;12.23;;;10.50;;
24435;SDS011;12616;52.470;13.436;2023-04-23T11:22:55;15.17;;;11.30;;
24435;SDS011;12616;52.470;13.436;2023-04-23T11:25:23;11.70;;;10.10;;
24435;SDS011;12616;52.470;13.436;2023-04-23T11:27:51;12.77;;;10.67;;
24435;SDS011;12616;52.470;13.436;2023-04-23T11:30:20;11.37;;;9.67;;
24435;SDS011;12616;52.470;13.436;2023-04-23T11:32:50;10.77;;;9.63;;
24435;SDS011;12616;52.470;13.436;2023-04-23T11:35:18;9.23;;;8.37;;
24435;SDS011;12616;52.470;13.436;2023-04-23T11:37:48;9.83;;;8.60;;
24435;SDS011;12616;52.470;13.436;2023-04-23T11:40:17;8.13;;;7.33;;
24435;SDS011;12616;52.470;13.436;2023-04-23T11:42:45;8.40;;;7.47;;
24435;SDS011;12616;52.470;13.436;2023-04-23T11:45:14;10.00;;;8.10;;
24435;SDS011;12616;52.470;13.436;2023-04-23T11:47:42;8.83;;;8.03;;
24435;SDS011;12616;52.470;13.436;2023-04-23T11:50:09;8.77;;;7.70;;
24435;SDS011;12616;52.470;13.436;2023-04-23T11:52:41;11.20;;;9.40;;
24435;SDS011;12616;52.470;13.436;2023-04-23T11:55:08;8.13;;;7.30;;
24435;SDS011;12616;52.470;13.436;2023-04-23T11:57:39;8.30;;;7.50;;
24435;SDS011;12616;52.470;13.436;2023-04-23T12:00:11;10.60;;;7.30;;
24435;SDS011;12616;52.470;13.436;2023-04-23T12:02:48;8.07;;;7.37;;
24435;SDS011;12616;52.470;13.436;2023-04-23T12:05:18;10.33;;;8.57;;
24435;SDS011;12616;52.470;13.436;2023-04-23T12:07:46;10.20;;;8.20;;
24435;SDS011;12616;52.470;13.436;2023-04-23T12:10:15;9.47;;;8.57;;
24435;SDS011;12616;52.470;13.436;2023-04-23T12:12:47;11.70;;;9.53;;
24435;SDS011;12616;52.470;13.436;2023-04-23T12:15:15;8.50;;;7.40;;
24435;SDS011;12616;52.470;13.436;2023-04-23T12:17:46;15.20;;;7.07;;
24435;SDS011;12616;52.470;13.436;2023-04-23T12:20:15;8.70;;;6.93;;
24435;SDS011;12616;52.470;13.436;2023-04-23T12:22:43;6.50;;;5.90;;
24435;SDS011;12616;52.470;13.436;2023-04-23T12:25:10;5.23;;;4.70;;
24435;SDS011;12616;52.470;13.436;2023-04-23T12:27:37;4.63;;;4.23;;
24435;SDS011;12616;52.470;13.436;2023-04-23T12:30:08;7.23;;;6.47;;
24435;SDS011;12616;52.470;13.436;2023-04-23T12:32:36;5.13;;;4.67;;
24435;SDS011;12616;52.470;13.436;2023-04-23T12:35:03;5.23;;;4.70;;
24435;SDS011;12616;52.470;13.436;2023-04-23T12:37:33;2.97;;;2.77;;
24435;SDS011;12616;52.470;13.436;2023-04-23T12:40:01;2.77;;;2.57;;
24435;SDS011;12616;52.470;13.436;2023-04-23T12:42:31;5.73;;;3.90;;
24435;SDS011;12616;52.470;13.436;2023-04-23T12:45:03;2.70;;;2.50;;
24435;SDS011;12616;52.470;13.436;2023-04-23T12:47:33;3.10;;;2.90;;
24435;SDS011;12616;52.470;13.436;2023-04-23T12:50:00;2.93;;;2.70;;
24435;SDS011;12616;52.470;13.436;2023-04-23T12:52:29;3.30;;;2.97;;
24435;SDS011;12616;52.470;13.436;2023-04-23T12:54:56;2.60;;;2.40;;
24435;SDS011;12616;52.470;13.436;2023-04-23T12:57:25;3.43;;;2.10;;
24435;SDS011;12616;52.470;13.436;2023-04-23T12:59:52;2.33;;;2.17;;
24435;SDS011;12616;52.470;13.436;2023-04-23T13:02:20;2.57;;;2.37;;
24435;SDS011;12616;52.470;13.436;2023-04-23T13:04:48;2.33;;;2.23;;
24435;SDS011;12616;52.470;13.436;2023-04-23T13:07:15;2.63;;;2.43;;
24435;SDS011;12616;52.470;13.436;2023-04-23T13:09:42;2.40;;;2.20;;
24435;SDS011;12616;52.470;13.436;2023-04-23T13:12:09;2.90;;;2.70;;
24435;SDS011;12616;52.470;13.436;2023-04-23T13:14:36;2.63;;;2.30;;
24435;SDS011;12616;52.470;13.436;2023-04-23T13:17:03;2.50;;;2.20;;
24435;SDS011;12616;52.470;13.436;2023-04-23T13:19:30;2.27;;;2.07;;
24435;SDS011;12616;52.470;13.436;2023-04-23T13:22:00;3.30;;;2.40;;
24435;SDS011;12616;52.470;13.436;2023-04-23T13:24:27;2.13;;;2.03;;
24435;SDS011;12616;52.470;13.436;2023-04-23T13:26:54;2.73;;;2.53;;
24435;SDS011;12616;52.470;13.436;2023-04-23T13:29:22;2.70;;;2.50;;
24435;SDS011;12616;52.470;13.436;2023-04-23T13:31:51;2.70;;;2.50;;
24435;SDS011;12616;52.470;13.436;2023-04-23T13:34:18;3.30;;;3.00;;
24435;SDS011;12616;52.470;13.436;2023-04-23T13:36:45;3.00;;;2.80;;
24435;SDS011;12616;52.470;13.436;2023-04-23T13:39:13;3.13;;;2.93;;
24435;SDS011;12616;52.470;13.436;2023-04-23T13:41:40;3.33;;;3.13;;
24435;SDS011;12616;52.470;13.436;2023-04-23T13:44:08;3.30;;;3.03;;
24435;SDS011;12616;52.470;13.436;2023-04-23T13:46:35;3.70;;;3.40;;
24435;SDS011;12616;52.470;13.436;2023-04-23T13:49:04;4.33;;;3.03;;
24435;SDS011;12616;52.470;13.436;2023-04-23T13:51:31;4.67;;;4.27;;
24435;SDS011;12616;52.470;13.436;2023-04-23T13:53:58;4.13;;;3.83;;
24435;SDS011;12616;52.470;13.436;2023-04-23T13:56:26;3.10;;;2.90;;
24435;SDS011;12616;52.470;13.436;2023-04-23T13:58:54;3.37;;;3.17;;
24435;SDS011;12616;52.470;13.436;2023-04-23T14:01:26;4.77;;;4.37;;
24435;SDS011;12616;52.470;13.436;2023-04-23T14:03:53;6.00;;;3.90;;
24435;SDS011;12616;52.470;13.436;2023-04-23T14:06:20;5.07;;;4.63;;
24435;SDS011;12616;52.470;13.436;2023-04-23T14:08:46;4.60;;;4.03;;
24435;SDS011;12616;52.470;13.436;2023-04-23T14:11:13;4.13;;;3.60;;
24435;SDS011;12616;52.470;13.436;2023-04-23T14:48:03;4.07;;;3.77;;
24435;SDS011;12616;52.470;13.436;2023-04-23T15:15:02;4.00;;;3.60;;
24435;SDS011;12616;52.470;13.436;2023-04-23T15:17:56;3.50;;;3.30;;
24435;SDS011;12616;52.470;13.436;2023-04-23T15:20:29;5.43;;;4.87;;
24435;SDS011;12616;52.470;13.436;2023-04-23T15:22:57;3.80;;;3.50;;
24435;SDS011;12616;52.470;13.436;2023-04-23T15:25:38;5.30;;;4.80;;
24435;SDS011;12616;52.470;13.436;2023-04-23T15:28:25;5.40;;;4.00;;